sensor_id;sensor_type;location;lat;lon;timestamp;P1;durP1;ratioP1;P2;durP2;ratioP2
75984;SDS011;65033;44.660;37.758;2023-04-24T00:00:45;5.75;;;2.75;;
75984;SDS011;65033;44.660;37.758;2023-04-24T00:01:53;5.13;;;2.75;;
75984;SDS011;65033;44.660;37.758;2023-04-24T00:02:59;7.70;;;2.80;;
75984;SDS011;65033;44.660;37.758;2023-04-24T00:04:05;3.28;;;2.28;;
75984;SDS011;65033;44.660;37.758;2023-04-24T00:05:16;6.85;;;2.80;;
75984;SDS011;65033;44.660;37.758;2023-04-24T00:06:24;8.68;;;3.30;;
75984;SDS011;65033;44.660;37.758;2023-04-24T00:07:35;6.95;;;2.70;;
75984;SDS011;65033;44.660;37.758;2023-04-24T00:08:39;4.88;;;2.63;;
75984;SDS011;65033;44.660;37.758;2023-04-24T00:09:43;4.97;;;2.53;;
75984;SDS011;65033;44.660;37.758;2023-04-24T00:10:46;3.42;;;2.42;;
75984;SDS011;65033;44.660;37.758;2023-04-24T00:11:51;8.27;;;2.78;;
75984;SDS011;65033;44.660;37.758;2023-04-24T00:12:56;6.78;;;2.80;;
75984;SDS011;65033;44.660;37.758;2023-04-24T00:14:00;5.00;;;2.47;;
75984;SDS011;65033;44.660;37.758;2023-04-24T00:15:03;5.32;;;2.20;;
75984;SDS011;65033;44.660;37.758;2023-04-24T00:16:08;3.55;;;2.33;;
75984;SDS011;65033;44.660;37.758;2023-04-24T00:17:13;8.60;;;3.10;;
75984;SDS011;65033;44.660;37.758;2023-04-24T00:18:17;5.40;;;2.60;;
75984;SDS011;65033;44.660;37.758;2023-04-24T00:19:20;5.35;;;2.55;;
75984;SDS011;65033;44.660;37.758;2023-04-24T00:20:24;3.83;;;2.22;;
75984;SDS011;65033;44.660;37.758;2023-04-24T00:21:28;7.57;;;2.70;;
75984;SDS011;65033;44.660;37.758;2023-04-24T00:22:32;5.43;;;2.35;;
75984;SDS011;65033;44.660;37.758;2023-04-24T00:23:36;5.57;;;2.40;;
75984;SDS011;65033;44.660;37.758;2023-04-24T00:24:40;4.20;;;2.55;;
75984;SDS011;65033;44.660;37.758;2023-04-24T00:25:43;4.20;;;2.40;;
75984;SDS011;65033;44.660;37.758;2023-04-24T00:26:47;4.18;;;2.42;;
75984;SDS011;65033;44.660;37.758;2023-04-24T00:27:52;4.63;;;2.70;;
75984;SDS011;65033;44.660;37.758;2023-04-24T00:28:56;6.47;;;2.45;;
75984;SDS011;65033;44.660;37.758;2023-04-24T00:30:01;3.65;;;2.45;;
75984;SDS011;65033;44.660;37.758;2023-04-24T00:31:05;14.82;;;5.97;;
75984;SDS011;65033;44.660;37.758;2023-04-24T00:32:10;9.02;;;4.57;;
75984;SDS011;65033;44.660;37.758;2023-04-24T00:33:13;3.83;;;2.90;;
75984;SDS011;65033;44.660;37.758;2023-04-24T00:34:17;5.55;;;2.70;;
75984;SDS011;65033;44.660;37.758;2023-04-24T00:35:21;5.10;;;2.88;;
75984;SDS011;65033;44.660;37.758;2023-04-24T00:36:26;2.83;;;2.53;;
75984;SDS011;65033;44.660;37.758;2023-04-24T00:37:29;8.48;;;2.65;;
75984;SDS011;65033;44.660;37.758;2023-04-24T00:38:33;5.32;;;2.60;;
75984;SDS011;65033;44.660;37.758;2023-04-24T00:39:38;4.05;;;2.40;;
75984;SDS011;65033;44.660;37.758;2023-04-24T00:40:42;5.32;;;2.22;;
75984;SDS011;65033;44.660;37.758;2023-04-24T00:41:46;7.28;;;3.03;;
75984;SDS011;65033;44.660;37.758;2023-04-24T00:42:55;3.70;;;2.00;;
75984;SDS011;65033;44.660;37.758;2023-04-24T00:43:59;4.40;;;2.30;;
75984;SDS011;65033;44.660;37.758;2023-04-24T00:45:06;3.78;;;2.35;;
75984;SDS011;65033;44.660;37.758;2023-04-24T00:46:12;3.40;;;2.20;;
75984;SDS011;65033;44.660;37.758;2023-04-24T00:47:17;6.78;;;2.45;;
75984;SDS011;65033;44.660;37.758;2023-04-24T00:48:23;6.82;;;2.53;;
75984;SDS011;65033;44.660;37.758;2023-04-24T00:49:30;3.17;;;2.05;;
75984;SDS011;65033;44.660;37.758;2023-04-24T00:50:38;3.30;;;2.35;;
75984;SDS011;65033;44.660;37.758;2023-04-24T00:51:42;4.78;;;2.45;;
75984;SDS011;65033;44.660;37.758;2023-04-24T00:52:48;4.25;;;2.42;;
75984;SDS011;65033;44.660;37.758;2023-04-24T00:53:52;7.35;;;2.42;;
75984;SDS011;65033;44.660;37.758;2023-04-24T00:54:56;6.10;;;2.30;;
75984;SDS011;65033;44.660;37.758;2023-04-24T00:56:00;2.97;;;2.10;;
75984;SDS011;65033;44.660;37.758;2023-04-24T00:57:05;5.47;;;2.33;;
75984;SDS011;65033;44.660;37.758;2023-04-24T00:58:10;3.63;;;1.90;;
75984;SDS011;65033;44.660;37.758;2023-04-24T00:59:14;3.22;;;2.00;;
75984;SDS011;65033;44.660;37.758;2023-04-24T01:00:20;3.03;;;2.08;;
75984;SDS011;65033;44.660;37.758;2023-04-24T01:01:28;6.68;;;2.55;;
75984;SDS011;65033;44.660;37.758;2023-04-24T01:02:33;6.90;;;2.28;;
75984;SDS011;65033;44.660;37.758;2023-04-24T01:03:38;6.50;;;2.65;;
75984;SDS011;65033;44.660;37.758;2023-04-24T01:04:44;3.28;;;2.15;;
75984;SDS011;65033;44.660;37.758;2023-04-24T01:05:48;4.10;;;1.92;;
75984;SDS011;65033;44.660;37.758;2023-04-24T01:06:53;4.22;;;2.15;;
75984;SDS011;65033;44.660;37.758;2023-04-24T01:07:58;3.13;;;1.90;;
75984;SDS011;65033;44.660;37.758;2023-04-24T01:09:02;3.70;;;2.05;;
75984;SDS011;65033;44.660;37.758;2023-04-24T01:10:07;5.65;;;2.20;;
75984;SDS011;65033;44.660;37.758;2023-04-24T01:11:11;2.97;;;2.25;;
75984;SDS011;65033;44.660;37.758;2023-04-24T01:12:16;4.55;;;2.13;;
75984;SDS011;65033;44.660;37.758;2023-04-24T01:13:22;4.85;;;2.10;;
75984;SDS011;65033;44.660;37.758;2023-04-24T01:14:26;3.53;;;2.10;;
75984;SDS011;65033;44.660;37.758;2023-04-24T01:15:32;3.20;;;2.08;;
75984;SDS011;65033;44.660;37.758;2023-04-24T01:16:36;5.30;;;2.45;;
75984;SDS011;65033;44.660;37.758;2023-04-24T01:17:41;3.15;;;2.20;;
75984;SDS011;65033;44.660;37.758;2023-04-24T01:18:45;2.50;;;2.10;;
75984;SDS011;65033;44.660;37.758;2023-04-24T01:19:49;3.78;;;1.98;;
75984;SDS011;65033;44.660;37.758;2023-04-24T01:20:57;3.08;;;2.22;;
75984;SDS011;65033;44.660;37.758;2023-04-24T01:22:02;3.05;;;1.73;;
75984;SDS011;65033;44.660;37.758;2023-04-24T01:23:10;5.25;;;2.20;;
75984;SDS011;65033;44.660;37.758;2023-04-24T01:24:15;4.75;;;1.92;;
75984;SDS011;65033;44.660;37.758;2023-04-24T01:25:20;5.15;;;2.30;;
75984;SDS011;65033;44.660;37.758;2023-04-24T01:26:24;4.38;;;2.15;;
75984;SDS011;65033;44.660;37.758;2023-04-24T01:27:28;6.55;;;1.98;;
75984;SDS011;65033;44.660;37.758;2023-04-24T01:28:33;3.63;;;2.17;;
75984;SDS011;65033;44.660;37.758;2023-04-24T01:29:41;4.63;;;1.80;;
75984;SDS011;65033;44.660;37.758;2023-04-24T01:30:47;3.28;;;1.92;;
75984;SDS011;65033;44.660;37.758;2023-04-24T01:31:50;4.82;;;2.03;;
75984;SDS011;65033;44.660;37.758;2023-04-24T01:32:54;4.55;;;2.20;;
75984;SDS011;65033;44.660;37.758;2023-04-24T01:33:59;4.68;;;2.05;;
75984;SDS011;65033;44.660;37.758;2023-04-24T01:35:04;5.55;;;2.75;;
75984;SDS011;65033;44.660;37.758;2023-04-24T01:36:09;4.50;;;2.20;;
75984;SDS011;65033;44.660;37.758;2023-04-24T01:37:13;4.13;;;2.42;;
75984;SDS011;65033;44.660;37.758;2023-04-24T01:38:19;3.75;;;2.30;;
75984;SDS011;65033;44.660;37.758;2023-04-24T01:39:23;4.35;;;2.10;;
75984;SDS011;65033;44.660;37.758;2023-04-24T01:40:32;3.10;;;2.05;;
75984;SDS011;65033;44.660;37.758;2023-04-24T01:41:36;4.57;;;1.83;;
75984;SDS011;65033;44.660;37.758;2023-04-24T01:42:46;2.13;;;1.90;;
75984;SDS011;65033;44.660;37.758;2023-04-24T01:43:50;3.92;;;2.10;;
75984;SDS011;65033;44.660;37.758;2023-04-24T01:44:54;6.15;;;2.00;;
75984;SDS011;65033;44.660;37.758;2023-04-24T01:45:59;3.88;;;2.03;;
75984;SDS011;65033;44.660;37.758;2023-04-24T01:47:02;4.95;;;1.98;;
75984;SDS011;65033;44.660;37.758;2023-04-24T01:48:06;3.28;;;2.10;;
75984;SDS011;65033;44.660;37.758;2023-04-24T01:49:10;4.00;;;1.95;;
75984;SDS011;65033;44.660;37.758;2023-04-24T01:50:13;5.28;;;2.20;;
75984;SDS011;65033;44.660;37.758;2023-04-24T01:51:17;4.07;;;2.25;;
75984;SDS011;65033;44.660;37.758;2023-04-24T01:52:21;5.22;;;1.85;;
75984;SDS011;65033;44.660;37.758;2023-04-24T01:53:26;3.85;;;2.00;;
75984;SDS011;65033;44.660;37.758;2023-04-24T01:54:30;6.78;;;3.67;;
75984;SDS011;65033;44.660;37.758;2023-04-24T01:55:33;4.60;;;2.10;;
75984;SDS011;65033;44.660;37.758;2023-04-24T01:56:37;5.15;;;2.42;;
75984;SDS011;65033;44.660;37.758;2023-04-24T01:57:45;4.72;;;2.08;;
75984;SDS011;65033;44.660;37.758;2023-04-24T01:58:48;5.70;;;2.00;;
75984;SDS011;65033;44.660;37.758;2023-04-24T01:59:53;4.93;;;1.85;;
75984;SDS011;65033;44.660;37.758;2023-04-24T02:00:57;3.40;;;2.25;;
75984;SDS011;65033;44.660;37.758;2023-04-24T02:02:02;3.88;;;2.00;;
75984;SDS011;65033;44.660;37.758;2023-04-24T02:03:07;3.20;;;1.85;;
75984;SDS011;65033;44.660;37.758;2023-04-24T02:04:11;6.30;;;2.08;;
75984;SDS011;65033;44.660;37.758;2023-04-24T02:05:14;4.90;;;1.90;;
75984;SDS011;65033;44.660;37.758;2023-04-24T02:06:18;5.53;;;2.55;;
75984;SDS011;65033;44.660;37.758;2023-04-24T02:07:21;3.10;;;2.05;;
75984;SDS011;65033;44.660;37.758;2023-04-24T02:08:27;4.28;;;1.83;;
75984;SDS011;65033;44.660;37.758;2023-04-24T02:09:30;4.57;;;2.00;;
75984;SDS011;65033;44.660;37.758;2023-04-24T02:10:34;2.80;;;2.08;;
75984;SDS011;65033;44.660;37.758;2023-04-24T02:11:37;3.45;;;2.03;;
75984;SDS011;65033;44.660;37.758;2023-04-24T02:12:42;3.10;;;2.35;;
75984;SDS011;65033;44.660;37.758;2023-04-24T02:13:45;8.27;;;3.72;;
75984;SDS011;65033;44.660;37.758;2023-04-24T02:14:49;4.68;;;2.30;;
75984;SDS011;65033;44.660;37.758;2023-04-24T02:15:53;2.95;;;1.98;;
75984;SDS011;65033;44.660;37.758;2023-04-24T02:16:58;3.85;;;2.38;;
75984;SDS011;65033;44.660;37.758;2023-04-24T02:18:03;5.28;;;2.00;;
75984;SDS011;65033;44.660;37.758;2023-04-24T02:19:07;7.28;;;2.30;;
75984;SDS011;65033;44.660;37.758;2023-04-24T02:20:10;3.90;;;2.17;;
75984;SDS011;65033;44.660;37.758;2023-04-24T02:21:17;3.78;;;2.30;;
75984;SDS011;65033;44.660;37.758;2023-04-24T02:22:21;3.65;;;2.45;;
75984;SDS011;65033;44.660;37.758;2023-04-24T02:23:26;3.25;;;2.22;;
75984;SDS011;65033;44.660;37.758;2023-04-24T02:24:30;6.25;;;2.67;;
75984;SDS011;65033;44.660;37.758;2023-04-24T02:25:33;4.55;;;2.53;;
75984;SDS011;65033;44.660;37.758;2023-04-24T02:26:37;2.28;;;2.08;;
75984;SDS011;65033;44.660;37.758;2023-04-24T02:27:41;6.57;;;2.40;;
75984;SDS011;65033;44.660;37.758;2023-04-24T02:28:44;4.10;;;2.20;;
75984;SDS011;65033;44.660;37.758;2023-04-24T02:29:47;5.13;;;2.53;;
75984;SDS011;65033;44.660;37.758;2023-04-24T02:30:51;4.20;;;2.55;;
75984;SDS011;65033;44.660;37.758;2023-04-24T02:31:57;2.95;;;2.42;;
75984;SDS011;65033;44.660;37.758;2023-04-24T02:33:00;4.72;;;3.00;;
75984;SDS011;65033;44.660;37.758;2023-04-24T02:34:04;5.93;;;2.75;;
75984;SDS011;65033;44.660;37.758;2023-04-24T02:35:08;10.73;;;2.95;;
75984;SDS011;65033;44.660;37.758;2023-04-24T02:36:12;4.43;;;2.80;;
75984;SDS011;65033;44.660;37.758;2023-04-24T02:37:16;6.47;;;2.63;;
75984;SDS011;65033;44.660;37.758;2023-04-24T02:38:19;5.03;;;3.58;;
75984;SDS011;65033;44.660;37.758;2023-04-24T02:39:25;4.88;;;3.10;;
75984;SDS011;65033;44.660;37.758;2023-04-24T02:40:29;5.97;;;3.20;;
75984;SDS011;65033;44.660;37.758;2023-04-24T02:41:32;3.75;;;2.63;;
75984;SDS011;65033;44.660;37.758;2023-04-24T02:42:36;3.67;;;2.70;;
75984;SDS011;65033;44.660;37.758;2023-04-24T02:43:39;11.63;;;3.70;;
75984;SDS011;65033;44.660;37.758;2023-04-24T02:44:42;5.90;;;2.70;;
75984;SDS011;65033;44.660;37.758;2023-04-24T02:45:46;4.57;;;2.85;;
75984;SDS011;65033;44.660;37.758;2023-04-24T02:46:49;6.70;;;2.67;;
75984;SDS011;65033;44.660;37.758;2023-04-24T02:47:52;6.97;;;2.70;;
75984;SDS011;65033;44.660;37.758;2023-04-24T02:48:56;5.15;;;2.35;;
75984;SDS011;65033;44.660;37.758;2023-04-24T02:49:59;9.73;;;4.85;;
75984;SDS011;65033;44.660;37.758;2023-04-24T02:51:03;7.00;;;3.88;;
75984;SDS011;65033;44.660;37.758;2023-04-24T02:52:06;4.00;;;2.40;;
75984;SDS011;65033;44.660;37.758;2023-04-24T02:53:09;8.48;;;4.78;;
75984;SDS011;65033;44.660;37.758;2023-04-24T02:54:13;6.10;;;2.50;;
75984;SDS011;65033;44.660;37.758;2023-04-24T02:55:17;8.73;;;4.70;;
75984;SDS011;65033;44.660;37.758;2023-04-24T02:56:21;7.05;;;4.25;;
75984;SDS011;65033;44.660;37.758;2023-04-24T02:57:25;5.78;;;3.58;;
75984;SDS011;65033;44.660;37.758;2023-04-24T02:58:28;9.27;;;5.13;;
75984;SDS011;65033;44.660;37.758;2023-04-24T02:59:31;10.15;;;5.75;;
75984;SDS011;65033;44.660;37.758;2023-04-24T03:00:35;3.88;;;2.80;;
75984;SDS011;65033;44.660;37.758;2023-04-24T03:01:38;3.88;;;2.58;;
75984;SDS011;65033;44.660;37.758;2023-04-24T03:02:42;5.50;;;2.97;;
75984;SDS011;65033;44.660;37.758;2023-04-24T03:03:46;6.78;;;4.55;;
75984;SDS011;65033;44.660;37.758;2023-04-24T03:04:50;6.07;;;3.80;;
75984;SDS011;65033;44.660;37.758;2023-04-24T03:05:55;4.65;;;3.05;;
75984;SDS011;65033;44.660;37.758;2023-04-24T03:06:59;8.02;;;5.28;;
75984;SDS011;65033;44.660;37.758;2023-04-24T03:08:03;4.57;;;2.60;;
75984;SDS011;65033;44.660;37.758;2023-04-24T03:09:07;7.13;;;3.00;;
75984;SDS011;65033;44.660;37.758;2023-04-24T03:10:12;9.10;;;4.30;;
75984;SDS011;65033;44.660;37.758;2023-04-24T03:11:17;7.88;;;3.88;;
75984;SDS011;65033;44.660;37.758;2023-04-24T03:12:21;7.30;;;2.75;;
75984;SDS011;65033;44.660;37.758;2023-04-24T03:13:26;3.28;;;2.53;;
75984;SDS011;65033;44.660;37.758;2023-04-24T03:14:29;5.53;;;2.80;;
75984;SDS011;65033;44.660;37.758;2023-04-24T03:15:33;4.22;;;2.70;;
75984;SDS011;65033;44.660;37.758;2023-04-24T03:16:37;6.55;;;3.20;;
75984;SDS011;65033;44.660;37.758;2023-04-24T03:17:41;9.95;;;4.72;;
75984;SDS011;65033;44.660;37.758;2023-04-24T03:18:44;4.35;;;2.63;;
75984;SDS011;65033;44.660;37.758;2023-04-24T03:19:48;4.32;;;2.72;;
75984;SDS011;65033;44.660;37.758;2023-04-24T03:20:52;9.88;;;5.55;;
75984;SDS011;65033;44.660;37.758;2023-04-24T03:21:56;6.40;;;4.28;;
75984;SDS011;65033;44.660;37.758;2023-04-24T03:22:59;4.38;;;2.75;;
75984;SDS011;65033;44.660;37.758;2023-04-24T03:24:03;9.38;;;4.00;;
75984;SDS011;65033;44.660;37.758;2023-04-24T03:25:07;8.73;;;4.35;;
75984;SDS011;65033;44.660;37.758;2023-04-24T03:26:12;9.75;;;5.25;;
75984;SDS011;65033;44.660;37.758;2023-04-24T03:27:28;8.57;;;4.22;;
75984;SDS011;65033;44.660;37.758;2023-04-24T03:28:39;2.90;;;2.30;;
75984;SDS011;65033;44.660;37.758;2023-04-24T03:29:42;6.43;;;3.20;;
75984;SDS011;65033;44.660;37.758;2023-04-24T03:30:46;10.25;;;5.70;;
75984;SDS011;65033;44.660;37.758;2023-04-24T03:31:50;4.50;;;2.80;;
75984;SDS011;65033;44.660;37.758;2023-04-24T03:32:54;14.07;;;3.30;;
75984;SDS011;65033;44.660;37.758;2023-04-24T03:34:01;7.07;;;3.03;;
75984;SDS011;65033;44.660;37.758;2023-04-24T03:35:05;4.53;;;3.30;;
75984;SDS011;65033;44.660;37.758;2023-04-24T03:36:10;4.72;;;3.00;;
75984;SDS011;65033;44.660;37.758;2023-04-24T03:37:15;3.78;;;2.80;;
75984;SDS011;65033;44.660;37.758;2023-04-24T03:38:25;4.07;;;3.10;;
75984;SDS011;65033;44.660;37.758;2023-04-24T03:39:41;4.63;;;3.10;;
75984;SDS011;65033;44.660;37.758;2023-04-24T03:40:45;7.25;;;3.85;;
75984;SDS011;65033;44.660;37.758;2023-04-24T03:42:09;6.00;;;3.15;;
75984;SDS011;65033;44.660;37.758;2023-04-24T03:43:25;8.35;;;3.17;;
75984;SDS011;65033;44.660;37.758;2023-04-24T03:44:32;9.10;;;3.20;;
75984;SDS011;65033;44.660;37.758;2023-04-24T03:45:35;3.92;;;2.75;;
75984;SDS011;65033;44.660;37.758;2023-04-24T03:46:39;5.85;;;2.60;;
75984;SDS011;65033;44.660;37.758;2023-04-24T03:47:45;5.80;;;2.80;;
75984;SDS011;65033;44.660;37.758;2023-04-24T03:48:48;9.25;;;3.60;;
75984;SDS011;65033;44.660;37.758;2023-04-24T03:49:53;20.00;;;5.95;;
75984;SDS011;65033;44.660;37.758;2023-04-24T03:50:58;5.35;;;3.17;;
75984;SDS011;65033;44.660;37.758;2023-04-24T03:52:02;5.43;;;3.13;;
75984;SDS011;65033;44.660;37.758;2023-04-24T03:53:05;4.97;;;3.70;;
75984;SDS011;65033;44.660;37.758;2023-04-24T03:54:13;6.75;;;3.17;;
75984;SDS011;65033;44.660;37.758;2023-04-24T03:55:16;9.05;;;3.80;;
75984;SDS011;65033;44.660;37.758;2023-04-24T03:56:22;9.40;;;4.00;;
75984;SDS011;65033;44.660;37.758;2023-04-24T03:57:25;5.22;;;3.38;;
75984;SDS011;65033;44.660;37.758;2023-04-24T03:58:47;6.15;;;3.35;;
75984;SDS011;65033;44.660;37.758;2023-04-24T03:59:50;8.57;;;3.22;;
75984;SDS011;65033;44.660;37.758;2023-04-24T04:00:56;8.57;;;4.40;;
75984;SDS011;65033;44.660;37.758;2023-04-24T04:02:23;7.40;;;3.60;;
75984;SDS011;65033;44.660;37.758;2023-04-24T04:03:27;5.78;;;3.70;;
75984;SDS011;65033;44.660;37.758;2023-04-24T04:04:30;5.78;;;3.60;;
75984;SDS011;65033;44.660;37.758;2023-04-24T04:05:34;4.95;;;3.63;;
75984;SDS011;65033;44.660;37.758;2023-04-24T04:06:38;8.00;;;3.50;;
75984;SDS011;65033;44.660;37.758;2023-04-24T04:07:41;4.65;;;3.05;;
75984;SDS011;65033;44.660;37.758;2023-04-24T04:08:45;6.47;;;3.97;;
75984;SDS011;65033;44.660;37.758;2023-04-24T04:09:48;6.50;;;3.53;;
75984;SDS011;65033;44.660;37.758;2023-04-24T04:10:52;7.97;;;4.20;;
75984;SDS011;65033;44.660;37.758;2023-04-24T04:11:55;9.15;;;3.92;;
75984;SDS011;65033;44.660;37.758;2023-04-24T04:12:58;12.63;;;4.53;;
75984;SDS011;65033;44.660;37.758;2023-04-24T04:14:04;10.32;;;4.78;;
75984;SDS011;65033;44.660;37.758;2023-04-24T04:15:09;8.15;;;4.68;;
75984;SDS011;65033;44.660;37.758;2023-04-24T04:16:13;10.20;;;3.72;;
75984;SDS011;65033;44.660;37.758;2023-04-24T04:17:20;7.32;;;4.00;;
75984;SDS011;65033;44.660;37.758;2023-04-24T04:18:23;9.95;;;4.57;;
75984;SDS011;65033;44.660;37.758;2023-04-24T04:19:27;11.57;;;4.40;;
75984;SDS011;65033;44.660;37.758;2023-04-24T04:20:30;11.95;;;5.15;;
75984;SDS011;65033;44.660;37.758;2023-04-24T04:21:34;8.43;;;4.47;;
75984;SDS011;65033;44.660;37.758;2023-04-24T04:22:58;9.13;;;4.53;;
75984;SDS011;65033;44.660;37.758;2023-04-24T04:24:14;7.72;;;4.63;;
75984;SDS011;65033;44.660;37.758;2023-04-24T04:25:20;9.07;;;5.03;;
75984;SDS011;65033;44.660;37.758;2023-04-24T04:26:23;9.10;;;4.53;;
75984;SDS011;65033;44.660;37.758;2023-04-24T04:27:43;11.35;;;5.35;;
75984;SDS011;65033;44.660;37.758;2023-04-24T04:28:47;9.95;;;5.50;;
75984;SDS011;65033;44.660;37.758;2023-04-24T04:29:52;9.50;;;5.35;;
75984;SDS011;65033;44.660;37.758;2023-04-24T04:30:56;10.13;;;6.25;;
75984;SDS011;65033;44.660;37.758;2023-04-24T04:32:00;11.15;;;5.95;;
75984;SDS011;65033;44.660;37.758;2023-04-24T04:33:04;8.95;;;5.72;;
75984;SDS011;65033;44.660;37.758;2023-04-24T04:34:08;10.43;;;4.55;;
75984;SDS011;65033;44.660;37.758;2023-04-24T04:35:12;12.43;;;5.57;;
75984;SDS011;65033;44.660;37.758;2023-04-24T04:36:16;17.65;;;5.10;;
75984;SDS011;65033;44.660;37.758;2023-04-24T04:37:34;11.77;;;4.50;;
75984;SDS011;65033;44.660;37.758;2023-04-24T04:39:00;8.73;;;4.40;;
75984;SDS011;65033;44.660;37.758;2023-04-24T04:40:19;13.50;;;4.38;;
75984;SDS011;65033;44.660;37.758;2023-04-24T04:41:29;13.00;;;5.07;;
75984;SDS011;65033;44.660;37.758;2023-04-24T04:42:33;8.38;;;4.00;;
75984;SDS011;65033;44.660;37.758;2023-04-24T04:43:37;13.50;;;4.47;;
75984;SDS011;65033;44.660;37.758;2023-04-24T04:44:43;10.35;;;4.43;;
75984;SDS011;65033;44.660;37.758;2023-04-24T04:45:54;15.38;;;4.63;;
75984;SDS011;65033;44.660;37.758;2023-04-24T04:47:16;8.02;;;3.90;;
75984;SDS011;65033;44.660;37.758;2023-04-24T04:48:20;7.15;;;3.85;;
75984;SDS011;65033;44.660;37.758;2023-04-24T04:49:25;11.10;;;4.03;;
75984;SDS011;65033;44.660;37.758;2023-04-24T04:50:31;6.25;;;3.35;;
75984;SDS011;65033;44.660;37.758;2023-04-24T04:51:40;6.85;;;3.42;;
75984;SDS011;65033;44.660;37.758;2023-04-24T04:52:44;10.13;;;3.60;;
75984;SDS011;65033;44.660;37.758;2023-04-24T04:54:04;5.78;;;3.30;;
75984;SDS011;65033;44.660;37.758;2023-04-24T04:55:09;5.13;;;3.42;;
75984;SDS011;65033;44.660;37.758;2023-04-24T04:56:33;5.43;;;3.78;;
75984;SDS011;65033;44.660;37.758;2023-04-24T04:57:37;7.30;;;4.05;;
75984;SDS011;65033;44.660;37.758;2023-04-24T04:58:40;6.03;;;3.78;;
75984;SDS011;65033;44.660;37.758;2023-04-24T04:59:47;6.40;;;4.00;;
75984;SDS011;65033;44.660;37.758;2023-04-24T05:01:02;7.07;;;3.83;;
75984;SDS011;65033;44.660;37.758;2023-04-24T05:02:11;9.15;;;3.20;;
75984;SDS011;65033;44.660;37.758;2023-04-24T05:03:15;5.05;;;3.38;;
75984;SDS011;65033;44.660;37.758;2023-04-24T05:04:23;8.20;;;3.60;;
75984;SDS011;65033;44.660;37.758;2023-04-24T05:05:27;8.65;;;3.97;;
75984;SDS011;65033;44.660;37.758;2023-04-24T05:06:31;11.63;;;3.30;;
75984;SDS011;65033;44.660;37.758;2023-04-24T05:07:35;20.75;;;4.10;;
75984;SDS011;65033;44.660;37.758;2023-04-24T05:08:41;5.18;;;3.08;;
75984;SDS011;65033;44.660;37.758;2023-04-24T05:10:55;5.85;;;3.05;;
75984;SDS011;65033;44.660;37.758;2023-04-24T05:12:00;3.45;;;2.80;;
75984;SDS011;65033;44.660;37.758;2023-04-24T05:13:08;5.53;;;3.00;;
75984;SDS011;65033;44.660;37.758;2023-04-24T05:14:12;5.80;;;3.25;;
75984;SDS011;65033;44.660;37.758;2023-04-24T05:15:17;8.63;;;4.18;;
75984;SDS011;65033;44.660;37.758;2023-04-24T05:16:23;6.85;;;3.10;;
75984;SDS011;65033;44.660;37.758;2023-04-24T05:17:28;9.85;;;4.20;;
75984;SDS011;65033;44.660;37.758;2023-04-24T05:18:33;9.38;;;3.10;;
75984;SDS011;65033;44.660;37.758;2023-04-24T05:19:36;8.50;;;3.83;;
75984;SDS011;65033;44.660;37.758;2023-04-24T05:20:42;8.15;;;3.95;;
75984;SDS011;65033;44.660;37.758;2023-04-24T05:21:46;9.68;;;3.55;;
75984;SDS011;65033;44.660;37.758;2023-04-24T05:22:49;9.45;;;4.00;;
75984;SDS011;65033;44.660;37.758;2023-04-24T05:23:54;13.65;;;5.60;;
75984;SDS011;65033;44.660;37.758;2023-04-24T05:25:20;11.80;;;4.93;;
75984;SDS011;65033;44.660;37.758;2023-04-24T05:26:34;12.50;;;5.53;;
75984;SDS011;65033;44.660;37.758;2023-04-24T05:27:38;8.23;;;3.70;;
75984;SDS011;65033;44.660;37.758;2023-04-24T05:28:49;7.50;;;3.90;;
75984;SDS011;65033;44.660;37.758;2023-04-24T05:29:52;8.30;;;3.80;;
75984;SDS011;65033;44.660;37.758;2023-04-24T05:30:55;7.70;;;3.35;;
75984;SDS011;65033;44.660;37.758;2023-04-24T05:32:01;12.05;;;3.72;;
75984;SDS011;65033;44.660;37.758;2023-04-24T05:33:05;11.65;;;3.97;;
75984;SDS011;65033;44.660;37.758;2023-04-24T05:34:10;5.80;;;3.35;;
75984;SDS011;65033;44.660;37.758;2023-04-24T05:35:16;5.85;;;3.40;;
75984;SDS011;65033;44.660;37.758;2023-04-24T05:36:21;6.30;;;3.58;;
75984;SDS011;65033;44.660;37.758;2023-04-24T05:37:24;6.90;;;3.38;;
75984;SDS011;65033;44.660;37.758;2023-04-24T05:38:28;7.25;;;3.67;;
75984;SDS011;65033;44.660;37.758;2023-04-24T05:39:31;7.50;;;3.50;;
75984;SDS011;65033;44.660;37.758;2023-04-24T05:40:35;7.80;;;3.38;;
75984;SDS011;65033;44.660;37.758;2023-04-24T05:41:38;8.02;;;3.30;;
75984;SDS011;65033;44.660;37.758;2023-04-24T05:42:42;8.00;;;3.03;;
75984;SDS011;65033;44.660;37.758;2023-04-24T05:43:45;6.53;;;3.40;;
75984;SDS011;65033;44.660;37.758;2023-04-24T05:44:49;10.68;;;3.58;;
75984;SDS011;65033;44.660;37.758;2023-04-24T05:46:11;6.13;;;3.22;;
75984;SDS011;65033;44.660;37.758;2023-04-24T05:47:16;10.98;;;3.35;;
75984;SDS011;65033;44.660;37.758;2023-04-24T05:48:19;6.00;;;3.45;;
75984;SDS011;65033;44.660;37.758;2023-04-24T05:50:49;6.78;;;3.53;;
75984;SDS011;65033;44.660;37.758;2023-04-24T05:51:53;7.82;;;3.90;;
75984;SDS011;65033;44.660;37.758;2023-04-24T05:52:57;6.63;;;3.20;;
75984;SDS011;65033;44.660;37.758;2023-04-24T05:54:08;6.80;;;3.53;;
75984;SDS011;65033;44.660;37.758;2023-04-24T05:55:31;5.78;;;3.38;;
75984;SDS011;65033;44.660;37.758;2023-04-24T05:56:42;6.07;;;3.85;;
75984;SDS011;65033;44.660;37.758;2023-04-24T05:58:19;7.35;;;3.92;;
75984;SDS011;65033;44.660;37.758;2023-04-24T05:59:27;4.55;;;3.63;;
75984;SDS011;65033;44.660;37.758;2023-04-24T06:00:37;6.07;;;4.13;;
75984;SDS011;65033;44.660;37.758;2023-04-24T06:01:46;12.30;;;4.53;;
75984;SDS011;65033;44.660;37.758;2023-04-24T06:02:55;5.82;;;3.90;;
75984;SDS011;65033;44.660;37.758;2023-04-24T06:04:03;4.55;;;3.53;;
75984;SDS011;65033;44.660;37.758;2023-04-24T06:05:07;4.93;;;3.58;;
75984;SDS011;65033;44.660;37.758;2023-04-24T06:06:10;6.18;;;3.50;;
75984;SDS011;65033;44.660;37.758;2023-04-24T06:07:30;7.07;;;4.20;;
75984;SDS011;65033;44.660;37.758;2023-04-24T06:08:36;8.05;;;4.55;;
75984;SDS011;65033;44.660;37.758;2023-04-24T06:09:39;14.02;;;5.07;;
75984;SDS011;65033;44.660;37.758;2023-04-24T06:10:43;6.90;;;4.50;;
75984;SDS011;65033;44.660;37.758;2023-04-24T06:11:46;7.38;;;4.53;;
75984;SDS011;65033;44.660;37.758;2023-04-24T06:13:21;9.73;;;4.82;;
75984;SDS011;65033;44.660;37.758;2023-04-24T06:14:50;9.85;;;4.57;;
75984;SDS011;65033;44.660;37.758;2023-04-24T06:16:04;9.30;;;4.60;;
75984;SDS011;65033;44.660;37.758;2023-04-24T06:17:11;10.98;;;4.78;;
75984;SDS011;65033;44.660;37.758;2023-04-24T06:18:17;7.57;;;4.20;;
75984;SDS011;65033;44.660;37.758;2023-04-24T06:19:22;7.25;;;4.82;;
75984;SDS011;65033;44.660;37.758;2023-04-24T06:20:25;10.05;;;4.70;;
75984;SDS011;65033;44.660;37.758;2023-04-24T06:21:29;11.00;;;5.32;;
75984;SDS011;65033;44.660;37.758;2023-04-24T06:22:34;9.10;;;4.97;;
75984;SDS011;65033;44.660;37.758;2023-04-24T06:23:38;9.48;;;5.15;;
75984;SDS011;65033;44.660;37.758;2023-04-24T06:24:41;11.15;;;5.13;;
75984;SDS011;65033;44.660;37.758;2023-04-24T06:25:44;16.08;;;5.70;;
75984;SDS011;65033;44.660;37.758;2023-04-24T06:26:48;9.73;;;5.10;;
75984;SDS011;65033;44.660;37.758;2023-04-24T06:27:51;11.18;;;5.63;;
75984;SDS011;65033;44.660;37.758;2023-04-24T06:28:54;10.82;;;5.72;;
75984;SDS011;65033;44.660;37.758;2023-04-24T06:29:58;14.82;;;5.40;;
75984;SDS011;65033;44.660;37.758;2023-04-24T06:31:01;7.03;;;5.07;;
75984;SDS011;65033;44.660;37.758;2023-04-24T06:32:05;13.32;;;5.38;;
75984;SDS011;65033;44.660;37.758;2023-04-24T06:33:08;7.85;;;6.00;;